createdAt,value
2023-01-29T00:00:03.832Z,44.87
2023-01-29T00:05:25.525Z,41.33
2023-01-29T00:10:20.349Z,36.03
2023-01-29T00:15:15.098Z,41.23
2023-01-29T00:20:08.976Z,33.40
2023-01-29T00:25:02.322Z,28.37
2023-01-29T00:35:13.979Z,24.30
2023-01-29T00:40:08.616Z,23.07
2023-01-29T00:45:00.845Z,26.83
2023-01-29T00:49:54.443Z,21.93
2023-01-29T00:54:49.826Z,17.37
2023-01-29T00:59:43.097Z,21.03
2023-01-29T01:04:36.333Z,19.60
2023-01-29T01:09:46.832Z,15.50
2023-01-29T01:14:43.289Z,14.40
2023-01-29T01:19:36.892Z,12.90
2023-01-29T01:24:30.391Z,9.63
2023-01-29T01:29:24.569Z,10.13
2023-01-29T01:34:21.839Z,11.00
2023-01-29T01:39:15.355Z,10.10
2023-01-29T01:44:08.629Z,10.50
2023-01-29T01:49:06.526Z,12.67
2023-01-29T01:54:06.671Z,9.53
2023-01-29T01:59:00.650Z,11.07
2023-01-29T02:04:17.566Z,10.27
2023-01-29T02:09:35.774Z,9.50
2023-01-29T02:14:30.742Z,11.40
2023-01-29T02:19:31.486Z,14.13
2023-01-29T02:29:39.463Z,11.77
2023-01-29T02:34:59.679Z,13.33
2023-01-29T02:40:00.124Z,9.03
2023-01-29T02:45:00.651Z,17.48
2023-01-29T02:50:02.209Z,15.73
2023-01-29T02:55:02.958Z,13.53
2023-01-29T03:00:01.867Z,11.93
2023-01-29T03:05:01.259Z,13.07
2023-01-29T03:09:56.464Z,12.57
2023-01-29T03:15:09.790Z,12.10
2023-01-29T03:20:09.254Z,11.13
2023-01-29T03:25:22.812Z,11.17
2023-01-29T03:30:37.297Z,11.00
2023-01-29T03:36:02.576Z,10.13
2023-01-29T03:41:01.227Z,11.50
2023-01-29T03:46:04.950Z,11.30
2023-01-29T03:51:07.680Z,10.60
2023-01-29T03:56:03.801Z,11.20
2023-01-29T04:01:02.700Z,11.40
2023-01-29T04:06:05.632Z,10.93
2023-01-29T04:11:07.266Z,12.10
2023-01-29T04:16:05.582Z,10.55
2023-01-29T04:21:20.555Z,11.97
2023-01-29T04:26:34.180Z,10.93
2023-01-29T04:31:36.736Z,12.70
2023-01-29T04:36:40.242Z,14.60
2023-01-29T04:41:37.709Z,14.47
2023-01-29T04:46:37.146Z,12.23
2023-01-29T04:51:44.386Z,14.53
2023-01-29T04:56:45.375Z,12.33
2023-01-29T05:01:40.064Z,13.03
2023-01-29T05:06:37.084Z,13.67
2023-01-29T05:11:33.412Z,12.67
2023-01-29T05:16:29.857Z,12.80
2023-01-29T05:21:24.286Z,13.57
2023-01-29T05:26:36.156Z,12.57
2023-01-29T05:31:29.372Z,13.20
2023-01-29T05:36:22.591Z,13.90
2023-01-29T05:41:17.204Z,15.40
2023-01-29T05:46:11.709Z,15.10
2023-01-29T05:51:06.312Z,15.20
2023-01-29T05:56:02.692Z,15.90
2023-01-29T06:00:55.866Z,14.77
2023-01-29T06:05:50.451Z,20.13
2023-01-29T06:10:43.638Z,20.13
2023-01-29T06:15:36.745Z,29.07
2023-01-29T06:20:29.905Z,22.43
2023-01-29T06:25:24.555Z,24.83
2023-01-29T06:30:18.558Z,26.17
2023-01-29T06:35:11.925Z,21.17
2023-01-29T06:40:05.620Z,23.67
2023-01-29T06:45:00.168Z,23.63
2023-01-29T06:49:53.354Z,23.23
2023-01-29T06:54:46.475Z,26.57
2023-01-29T06:59:39.666Z,20.97
2023-01-29T07:04:35.558Z,23.43
2023-01-29T07:09:28.883Z,28.47
2023-01-29T07:14:22.080Z,25.63
2023-01-29T07:19:15.566Z,48.80
2023-01-29T07:24:10.648Z,38.43
2023-01-29T07:29:05.756Z,26.70
2023-01-29T07:33:59.092Z,27.87
2023-01-29T07:38:55.252Z,34.33
2023-01-29T07:43:50.031Z,33.20
2023-01-29T07:48:43.479Z,29.13
2023-01-29T07:53:37.126Z,27.67
2023-01-29T07:58:32.303Z,22.67
2023-01-29T08:03:27.056Z,23.43
2023-01-29T08:08:20.508Z,20.70
2023-01-29T08:13:13.753Z,19.27
2023-01-29T08:18:07.443Z,22.00
2023-01-29T08:23:04.609Z,22.00
2023-01-29T08:27:59.109Z,21.00
2023-01-29T08:32:52.326Z,22.10
2023-01-29T08:37:46.740Z,21.87
2023-01-29T08:42:42.584Z,24.00
2023-01-29T08:47:35.885Z,35.20
2023-01-29T08:52:31.316Z,25.67
2023-01-29T08:57:24.482Z,23.73
2023-01-29T09:02:19.105Z,31.37
2023-01-29T09:07:14.320Z,37.80
2023-01-29T09:12:08.104Z,36.23
2023-01-29T09:17:01.378Z,68.60
2023-01-29T09:21:58.351Z,65.17
2023-01-29T09:26:51.483Z,43.60
2023-01-29T09:31:44.754Z,45.30
2023-01-29T09:36:38.208Z,52.67
2023-01-29T09:41:45.393Z,55.07
2023-01-29T09:46:42.209Z,40.13
2023-01-29T09:51:41.385Z,33.20
2023-01-29T09:56:36.799Z,24.07
2023-01-29T10:01:37.135Z,21.60
2023-01-29T10:06:44.494Z,18.70
2023-01-29T10:11:52.499Z,17.13
2023-01-29T10:16:57.470Z,31.77
2023-01-29T10:22:14.067Z,20.67
2023-01-29T10:27:16.314Z,19.70
2023-01-29T10:32:15.843Z,21.83
2023-01-29T10:37:18.651Z,20.93
2023-01-29T10:42:24.541Z,21.93
2023-01-29T10:47:59.829Z,28.87
2023-01-29T10:53:08.401Z,28.60
2023-01-29T10:58:12.346Z,29.57
2023-01-29T11:03:26.916Z,33.37
2023-01-29T11:08:24.353Z,24.87
2023-01-29T11:13:19.814Z,19.43
2023-01-29T11:18:15.971Z,21.40
2023-01-29T11:23:27.878Z,23.20
2023-01-29T11:28:38.261Z,21.90
2023-01-29T11:33:32.041Z,31.40
2023-01-29T11:38:29.610Z,26.77
2023-01-29T11:43:30.113Z,23.77
2023-01-29T11:48:28.319Z,23.25
2023-01-29T11:53:36.062Z,26.97
2023-01-29T11:58:32.822Z,21.30
2023-01-29T12:03:33.670Z,20.97
2023-01-29T12:08:30.792Z,25.60
2023-01-29T12:13:28.401Z,29.37
2023-01-29T12:18:28.000Z,35.33
2023-01-29T12:23:33.995Z,44.70
2023-01-29T12:28:38.127Z,46.93
2023-01-29T12:33:40.813Z,43.50
2023-01-29T12:38:37.243Z,25.67
2023-01-29T12:43:43.462Z,27.73
2023-01-29T12:48:40.180Z,29.20
2023-01-29T12:53:41.399Z,38.13
2023-01-29T12:58:39.374Z,28.37
2023-01-29T13:03:44.300Z,31.80
2023-01-29T13:08:43.860Z,48.07
2023-01-29T13:13:45.108Z,53.70
2023-01-29T13:18:45.150Z,42.07
2023-01-29T13:23:43.209Z,63.42
2023-01-29T13:28:38.004Z,63.03
2023-01-29T13:33:34.605Z,57.73
2023-01-29T13:38:30.949Z,41.70
2023-01-29T13:43:25.674Z,45.53
2023-01-29T13:48:25.607Z,57.27
2023-01-29T13:53:24.315Z,61.53
2023-01-29T13:58:19.675Z,82.00
2023-01-29T14:04:03.415Z,79.37
2023-01-29T14:08:55.934Z,64.20
2023-01-29T14:13:52.482Z,221.03
2023-01-29T14:18:49.651Z,81.80
2023-01-29T14:23:46.929Z,77.47
2023-01-29T14:28:41.755Z,65.10
2023-01-29T14:33:38.024Z,60.20
2023-01-29T14:38:35.962Z,63.30
2023-01-29T14:43:29.122Z,96.03
2023-01-29T14:48:38.963Z,190.37
2023-01-29T14:53:46.961Z,78.97
2023-01-29T14:58:46.253Z,54.30
2023-01-29T15:03:45.880Z,62.80
2023-01-29T15:08:49.701Z,94.43
2023-01-29T15:13:50.468Z,90.00
2023-01-29T15:18:48.996Z,85.17
2023-01-29T15:23:44.482Z,87.40
2023-01-29T15:28:38.853Z,81.50
2023-01-29T15:33:33.482Z,76.30
2023-01-29T15:38:27.487Z,95.77
2023-01-29T15:43:24.296Z,81.83
2023-01-29T15:48:20.871Z,71.67
2023-01-29T15:53:21.374Z,75.43
2023-01-29T15:58:18.881Z,82.50
2023-01-29T16:03:17.178Z,80.03
2023-01-29T16:08:14.473Z,92.77
2023-01-29T16:13:15.427Z,61.60
2023-01-29T16:18:22.712Z,81.53
2023-01-29T16:23:19.342Z,65.13
2023-01-29T16:28:14.596Z,44.73
2023-01-29T16:33:13.226Z,44.53
2023-01-29T16:38:27.857Z,37.13
2023-01-29T16:43:49.668Z,30.27
2023-01-29T16:48:44.730Z,26.20
2023-01-29T16:53:39.449Z,25.57
2023-01-29T16:58:35.014Z,29.23
2023-01-29T17:03:31.680Z,25.23
2023-01-29T17:08:29.055Z,28.37
2023-01-29T17:13:32.976Z,25.50
2023-01-29T17:18:26.702Z,20.83
2023-01-29T17:23:21.888Z,20.00
2023-01-29T17:28:19.350Z,21.60
2023-01-29T17:33:15.617Z,24.23
2023-01-29T17:38:24.296Z,69.17
2023-01-29T17:43:19.111Z,19.87
2023-01-29T17:48:18.183Z,21.83
2023-01-29T17:53:11.603Z,24.40
2023-01-29T17:58:05.087Z,27.17
2023-01-29T18:03:01.702Z,28.97
2023-01-29T18:07:56.615Z,25.03
2023-01-29T18:12:53.059Z,28.80
2023-01-29T18:17:52.206Z,23.87
2023-01-29T18:23:04.325Z,22.40
2023-01-29T18:28:01.018Z,22.33
2023-01-29T18:32:54.796Z,23.87
2023-01-29T18:37:48.310Z,26.17
2023-01-29T18:42:43.238Z,26.47
2023-01-29T18:47:36.612Z,24.83
2023-01-29T18:52:29.991Z,29.10
2023-01-29T18:58:26.171Z,34.17
2023-01-29T19:02:40.191Z,33.13
2023-01-29T19:07:34.396Z,40.63
2023-01-29T19:12:27.753Z,41.43
2023-01-29T19:17:21.083Z,37.33
2023-01-29T19:22:16.595Z,63.00
2023-01-29T19:27:10.066Z,48.63
2023-01-29T19:32:08.973Z,56.07
2023-01-29T19:37:02.470Z,52.50
2023-01-29T19:41:57.214Z,50.37
2023-01-29T19:46:50.659Z,41.77
2023-01-29T19:51:44.915Z,42.47
2023-01-29T19:56:38.619Z,51.63
2023-01-29T20:01:34.166Z,49.87
2023-01-29T20:06:32.220Z,60.43
2023-01-29T20:11:26.166Z,47.83
2023-01-29T20:16:20.779Z,66.23
2023-01-29T20:21:18.007Z,45.83
2023-01-29T20:26:15.211Z,42.70
2023-01-29T20:31:10.915Z,40.63
2023-01-29T20:36:06.428Z,52.97
2023-01-29T20:41:07.131Z,68.17
2023-01-29T20:46:01.473Z,60.87
2023-01-29T20:50:55.313Z,57.10
2023-01-29T20:55:48.630Z,76.93
2023-01-29T21:00:43.720Z,69.97
2023-01-29T21:05:40.402Z,55.17
2023-01-29T21:10:36.167Z,53.17
2023-01-29T21:15:31.802Z,39.60
2023-01-29T21:20:26.735Z,32.10
2023-01-29T21:25:21.441Z,28.57
2023-01-29T21:30:15.385Z,25.87
2023-01-29T21:35:09.732Z,26.33
2023-01-29T21:40:04.651Z,27.57
2023-01-29T21:45:00.553Z,23.13
2023-01-29T21:49:53.772Z,22.73
2023-01-29T21:54:48.984Z,25.97
2023-01-29T21:59:46.869Z,30.07
2023-01-29T22:04:46.178Z,26.13
2023-01-29T22:09:39.864Z,23.43
2023-01-29T22:14:33.185Z,26.60
2023-01-29T22:19:30.339Z,28.33
2023-01-29T22:24:25.131Z,25.73
2023-01-29T22:29:19.705Z,20.50
2023-01-29T22:34:17.112Z,23.90
2023-01-29T22:39:11.921Z,25.07
2023-01-29T22:44:05.397Z,23.83
2023-01-29T22:48:58.577Z,24.93
2023-01-29T22:53:53.625Z,23.03
2023-01-29T22:58:51.663Z,22.43
2023-01-29T23:03:45.634Z,20.27
2023-01-29T23:08:38.922Z,23.87
2023-01-29T23:13:32.095Z,23.53
2023-01-29T23:18:27.108Z,20.60
2023-01-29T23:23:20.319Z,18.50
2023-01-29T23:28:13.775Z,16.63
2023-01-29T23:33:12.072Z,17.83
2023-01-29T23:38:06.969Z,14.97
2023-01-29T23:43:00.109Z,13.83
2023-01-29T23:47:53.284Z,12.80
2023-01-29T23:52:46.494Z,16.57
2023-01-29T23:57:43.703Z,15.20
